• Join FlightAware (Why Join?)
  • Login
  • US Flag 
12:05AM EDT


 

Airport Tracker/Info


-or-


 

Live Flight TrackerFlight Track Log ✈ BAW747 ✈ 26-Aug-2013 ✈ ENZV / SVG - EGLL / LHR

Flight Track Log - Related Links

Times and Time Zones

All times are in EDT time to prevent confusion due to time zone crossing. See the BAW747 flight status page for this flight to view local times or setup timezone preferences in your user account.

Time Position Orientation Groundspeed Altitude Reporting Facility
EDT Latitude Longitude Course Direction KTS MPH feet Rate Location/Type
05:41PM 58.8800 5.6380 180° South 145 167  Level FlightAware
05:42PM 58.8610 5.6390 178° South 144 166 1,100 1,980 Climbing FlightAware
05:42PM 58.8410 5.6370 183° South 171 197 1,900 1,620 Climbing FlightAware
05:43PM 58.8280 5.6350 185° South 192 221 2,300 1,620 Climbing FlightAware
05:43PM 58.8090 5.6330 183° South 224 258 2,900 2,100 Climbing FlightAware
05:43PM 58.7860 5.6320 181° South 256 295 3,700 3,000 Climbing FlightAware
05:44PM 58.7620 5.6320 180° South 268 308 4,900 3,900 Climbing FlightAware
05:44PM 58.7370 5.6320 180° South 266 306 6,300 3,900 Climbing FlightAware
05:44PM 58.7080 5.6270 185° South 276 318 7,800 3,120 Climbing FlightAware
05:45PM 58.6860 5.6200 189° South 295 339 8,400 2,100 Climbing FlightAware
05:45PM 58.6490 5.6070 190° South 323 372 9,300 2,280 Climbing FlightAware
05:46PM 58.5940 5.5880 190° South 348 400 10,800 3,000 Climbing FlightAware
05:46PM 58.5430 5.5710 190° South 348 400 12,700 3,000 Climbing FlightAware
05:47PM 58.4870 5.5530 190° South 362 417 14,200 2,640 Climbing FlightAware
05:47PM 58.4290 5.5340 190° South 369 425 15,800 2,640 Climbing FlightAware
05:48PM 58.3680 5.5140 190° South 378 435 17,300 2,400 Climbing FlightAware
05:49PM 58.3070 5.4940 190° South 386 444 18,700 2,280 Climbing FlightAware
05:49PM 58.2420 5.4730 190° South 394 453 20,100 2,220 Climbing FlightAware
05:50PM 58.1800 5.4530 190° South 400 460 21,300 1,920 Climbing FlightAware
05:50PM 58.1180 5.4330 190° South 410 472 22,300 1,740 Climbing FlightAware
05:51PM 58.0460 5.4090 190° South 420 483 23,400 1,860 Climbing FlightAware
05:51PM 57.9860 5.3900 190° South 423 487 24,500 1,920 Climbing FlightAware
05:52PM 57.9140 5.3670 190° South 427 491 25,600 1,620 Climbing FlightAware
05:53PM 57.8450 5.3450 190° South 435 501 26,500 1,560 Climbing FlightAware
05:53PM 57.7740 5.3230 189° South 440 506 27,500 1,620 Climbing FlightAware
05:54PM 57.7090 5.3020 190° South 442 509 28,400 1,320 Climbing FlightAware
05:54PM 57.6350 5.2790 189° South 451 519 29,000 1,020 Climbing FlightAware
05:55PM 57.5680 5.2580 190° South 457 526 29,600 1,380 Climbing FlightAware
05:56PM 57.4960 5.2360 189° South 455 524 30,600 1,620 Climbing FlightAware
05:56PM 57.4010 5.2060 190° South 453 521 31,800 1,620 Climbing FlightAware
05:57PM 57.3350 5.1860 189° South 450 518 32,700 1,620 Climbing FlightAware
05:57PM 57.2560 5.1610 190° South 449 517 33,700 1,320 Climbing FlightAware
05:58PM 57.1840 5.1390 189° South 451 519 34,400 1,140 Climbing FlightAware
05:59PM 57.1190 5.1190 189° South 452 520 35,000 1,140 Climbing FlightAware
05:59PM 57.0430 5.0960 189° South 453 521 35,700 1,140 Climbing FlightAware
06:00PM 56.9690 5.0730 190° South 455 524 36,400 1,080 Climbing FlightAware
06:00PM 56.8960 5.0510 189° South 455 524 37,000 1,020 Climbing FlightAware
06:01PM 56.8250 5.0300 189° South 456 525 37,600 900 Climbing FlightAware
06:01PM 56.7580 5.0100 189° South 454 522 38,000 300 Climbing FlightAware
06:02PM 56.6840 4.9880 189° South 448 516 38,000  Level FlightAware
06:03PM 56.6110 4.9660 189° South 448 516 38,000  Level FlightAware
06:03PM 56.5380 4.9450 189° South 449 517 38,000  Level FlightAware
06:04PM 56.4740 4.9250 190° South 449 517 38,000  Level FlightAware
06:04PM 56.4090 4.9060 189° South 450 518 38,000  Level FlightAware
06:05PM 56.3350 4.8850 189° South 451 519 38,000  Level FlightAware
06:05PM 56.3175 4.8805 189° South 1 1 38,000  Level FlightAware UK
06:06PM 56.2610 4.8630 189° South 451 519 38,000  Level FlightAware
06:06PM 56.1870 4.8420 189° South 451 519 38,000  Level FlightAware
06:06PM 56.1700 4.8353 189° South 446 513 38,000  Level FlightAware UK
06:07PM 56.1083 4.8178 189° South 446 513 38,000  Level FlightAware UK
06:07PM 56.1070 4.8190 189° South 451 519 38,000  Level FlightAware
06:07PM 56.0470 4.8010 190° South 452 520 38,000  Level FlightAware
06:08PM 55.9750 4.7810 189° South 452 520 38,000  Level FlightAware
06:09PM 55.8920 4.7570 189° South 454 522 38,000  Level FlightAware
06:09PM 55.8300 4.7390 189° South 455 524 38,000  Level FlightAware
06:10PM 55.7560 4.7180 189° South 456 525 38,000  Level FlightAware
06:10PM 55.7363 4.7112 189° South 448 516 38,000  Level FlightAware UK
06:10PM 55.6742 4.6928 189° South 448 516 38,000  Level FlightAware UK
06:10PM 55.6610 4.6910 189° South 456 525 38,000  Level FlightAware
06:11PM 55.6040 4.6750 189° South 457 526 38,000  Level FlightAware
06:11PM 55.5370 4.6560 189° South 456 525 38,000  Level FlightAware
06:12PM 55.4550 4.6330 189° South 455 524 38,000  Level FlightAware
06:13PM 55.3820 4.6130 189° South 454 522 38,000  Level FlightAware
06:13PM 55.3616 4.6064 189° South 448 516 38,000  Level FlightAware UK
06:13PM 55.3110 4.5930 189° South 453 521 38,000  Level FlightAware
06:13PM 55.2990 4.5902 189° South 446 513 38,000  Level FlightAware UK
06:14PM 55.2368 4.5733 189° South 448 516 38,000  Level FlightAware UK
06:14PM 55.2370 4.5730 189° South 452 520 38,000  Level FlightAware
06:14PM 55.1670 4.5530 189° South 443 510 38,000  Level FlightAware
06:15PM 55.0930 4.5330 189° South 442 509 38,000  Level FlightAware
06:16PM 55.0230 4.5140 189° South 442 509 38,000  Level FlightAware
06:16PM 54.9490 4.4930 189° South 441 507 38,000  Level FlightAware
06:17PM 54.8790 4.4750 189° South 441 507 38,000  Level FlightAware
06:17PM 54.8552 4.4686 189° South 446 513 38,000  Level FlightAware UK
06:17PM 54.8160 4.4580 189° South 441 507 38,000  Level FlightAware
06:18PM 54.7201 4.4320 189° South 446 513 38,000  Level FlightAware UK
06:18PM 54.7250 4.4330 189° South 440 506 38,000  Level FlightAware
06:19PM 54.6580 4.4130 190° South 443 510 38,000  Level FlightAware
06:19PM 54.5820 4.3740 197° South 447 514 38,000  Level FlightAware
06:20PM 54.5210 4.3280 204° Southwest 450 518 38,000  Level FlightAware
06:20PM 54.4490 4.2630 204° Southwest 452 520 38,000  Level FlightAware
06:20PM 54.4279 4.2444 204° Southwest 448 516 38,000  Level FlightAware UK
06:21PM 54.3719 4.1934 204° Southwest 446 513 38,000  Level FlightAware UK
06:21PM 54.3770 4.1980 204° Southwest 452 520 38,000  Level FlightAware
06:21PM 54.3220 4.1480 208° Southwest 452 520 38,000  Level FlightAware
06:22PM 54.2410 4.0760 207° Southwest 454 522 38,000  Level FlightAware
06:23PM 54.1840 4.0250 208° Southwest 453 521 38,000  Level FlightAware
06:23PM 54.1190 3.9670 208° Southwest 452 520 38,000  Level FlightAware
06:24PM 54.0520 3.9070 208° Southwest 453 521 38,000  Level FlightAware
06:24PM 54.0333 3.8914 208° Southwest 446 513 38,000  Level FlightAware UK
06:24PM 53.9870 3.8500 208° Southwest 454 522 38,000  Level FlightAware
06:24PM 53.9769 3.8414 208° Southwest 446 513 38,000  Level FlightAware UK
06:25PM 53.9205 3.7913 208° Southwest 446 513 38,000  Level FlightAware UK
06:25PM 53.9110 3.7830 208° Southwest 454 522 38,000  Level FlightAware
06:26PM 53.8550 3.7340 207° Southwest 454 522 38,000  Level FlightAware
06:26PM 53.7900 3.6770 207° Southwest 454 522 38,000  Level FlightAware
06:27PM 53.7140 3.6110 207° Southwest 453 521 38,000  Level FlightAware
06:27PM 53.6570 3.5610 207° Southwest 451 519 38,000  Level FlightAware
06:28PM 53.5910 3.5040 207° Southwest 456 525 38,000  Level FlightAware
06:29PM 53.5290 3.4510 207° Southwest 456 525 38,000  Level FlightAware
06:29PM 53.4600 3.3920 207° Southwest 452 520 38,000  Level FlightAware
06:29PM 53.4348 3.3702 207° Southwest 446 513 38,000  Level FlightAware UK
06:30PM 53.3930 3.3340 207° Southwest 452 520 38,000  Level FlightAware
06:30PM 53.3100 3.2630 207° Southwest 446 513 38,000  Level FlightAware UK
06:30PM 53.3070 3.2610 207° Southwest 453 521 38,000  Level FlightAware
06:31PM 53.2510 3.2130 207° Southwest 454 522 38,000  Level FlightAware
06:31PM 53.2424 3.2060 207° Southwest 444 511 38,000 -240 Level FlightAware UK
06:31PM 53.1855 3.1576 207° Southwest 446 513 37,900  Descending FlightAware UK
06:32PM 53.1740 3.1480 207° Southwest 455 524 38,000 120 Climbing FlightAware
06:32PM 53.1070 3.0910 207° Southwest 465 535 38,000  Level FlightAware
06:33PM 53.0500 3.0440 206° Southwest 465 535 38,000  Level FlightAware
06:33PM 52.9720 2.9780 207° Southwest 465 535 38,000  Level FlightAware
06:34PM 52.9050 2.9230 206° Southwest 464 534 38,000  Level FlightAware
06:34PM 52.8480 2.8740 207° Southwest 464 534 38,000  Level FlightAware
06:35PM 52.7720 2.8120 207° Southwest 456 525 38,000  Level FlightAware
06:35PM 52.7610 2.8028 207° Southwest 450 518 38,000 -1,440 Level FlightAware UK
06:36PM 52.7180 2.7670 207° Southwest 452 520 37,300 -1,980 Descending FlightAware
06:36PM 52.7035 2.7553 207° Southwest 442 509 37,000 -3,120 Descending FlightAware UK
06:36PM 52.6464 2.7087 207° Southwest 452 520 35,600 -2,520 Descending FlightAware UK
06:36PM 52.6440 2.7070 207° Southwest 461 531 35,600 -2,760 Level FlightAware
06:37PM 52.5786 2.6531 207° Southwest 448 516 34,000 -2,880 Descending FlightAware UK
06:37PM 52.5750 2.6500 207° Southwest 465 535 33,900 -3,240 Descending FlightAware
06:37PM 52.5070 2.5940 207° Southwest 472 543 31,900 -3,000 Descending FlightAware
06:38PM 52.4380 2.5370 207° Southwest 470 541 30,400 -1,620 Descending FlightAware
06:39PM 52.3650 2.4790 206° Southwest 484 557 30,000 -360 Descending FlightAware
06:39PM 52.2960 2.4230 206° Southwest 481 554 30,000 -180 Level FlightAware
06:39PM 52.2833 2.4127 206° Southwest 464 534 29,900 -180 Descending FlightAware UK
06:40PM 52.2235 2.3646 206° Southwest 462 532 29,900 180 Level FlightAware UK
06:40PM 52.2310 2.3700 206° Southwest 479 551 30,000 240 Climbing FlightAware
06:40PM 52.1817 2.3307 206° Southwest 479 551 30,000 -180 Level FlightAware ADS-B
06:41PM 52.1328 2.2885 208° Southwest 481 554 29,900 -840 Descending FlightAware ADS-B
06:41PM 52.0837 2.2258 218° Southwest 480 552 29,300 -1,380 Descending FlightAware ADS-B
06:41PM 52.0790 2.2183 225° Southwest 480 552 29,200 -2,760 Descending FlightAware ADS-B
06:42PM 52.0323 2.1335 228° Southwest 480 552 27,700 -2,700 Descending FlightAware ADS-B
06:42PM 51.9636 2.0069 228° Southwest 448 516 25,700 -2,400 Descending FlightAware UK
06:42PM 51.9580 1.9962 228° Southwest 468 539 25,700 -1,020 Level FlightAware ADS-B
06:43PM 51.9123 1.9128 228° Southwest 448 516 25,100 -1,200 Descending FlightAware UK
06:43PM 51.9136 1.9150 228° Southwest 466 536 25,100 -2,040 Level FlightAware ADS-B
06:43PM 51.8700 1.8352 228° Southwest 440 506 24,100 -1,980 Descending FlightAware UK
06:43PM 51.8701 1.8353 228° Southwest 460 529 24,100 -2,100 Level FlightAware ADS-B
06:44PM 51.8201 1.7441 228° Southwest 434 499 22,900 -2,040 Descending FlightAware UK
06:44PM 51.7954 1.6989 228° Southwest 452 520 22,300 -1,920 Descending FlightAware ADS-B
06:45PM 51.7709 1.6531 229° Southwest 443 510 21,700 -1,980 Descending FlightAware ADS-B
06:45PM 51.7603 1.6275 236° Southwest 440 506 21,400 -1,740 Descending FlightAware ADS-B
06:45PM 51.7508 1.5948 245° Southwest 441 507 21,100 -1,920 Descending FlightAware ADS-B
06:45PM 51.7473 1.5768 253° West 440 506 20,900 -1,680 Descending FlightAware ADS-B
06:45PM 51.7451 1.5588 259° West 439 505 20,800 -1,680 Descending FlightAware ADS-B
06:46PM 51.7383 1.4602 264° West 432 497 19,900 -1,680 Descending FlightAware ADS-B
06:46PM 51.7318 1.3648 264° West 418 481 19,100 -1,680 Descending FlightAware ADS-B
06:47PM 51.7255 1.2702 264° West 412 474 18,200 -1,800 Descending FlightAware ADS-B
06:47PM 51.7194 1.1764 264° West 404 465 17,300 -1,680 Descending FlightAware ADS-B
06:48PM 51.7133 1.0867 264° West 404 465 16,500 -1,740 Descending FlightAware ADS-B
06:48PM 51.7073 0.9973 264° West 399 459 15,600 -1,740 Descending FlightAware ADS-B
06:49PM 51.7010 0.9086 263° West 395 455 14,800 -1,680 Descending FlightAware ADS-B
06:49PM 51.6941 0.8088 264° West 386 444 13,800 -1,740 Descending FlightAware ADS-B
06:50PM 51.6872 0.7102 264° West 384 442 12,800 -1,620 Descending FlightAware ADS-B
06:50PM 51.6812 0.6254 264° West 380 437 12,100 -1,500 Descending FlightAware ADS-B
06:51PM 51.6752 0.5402 264° West 379 436 11,300 -1,500 Descending FlightAware ADS-B
06:51PM 51.6690 0.4565 263° West 373 429 10,600 -1,500 Descending FlightAware ADS-B
06:52PM 51.6642 0.3916 263° West 372 428 10,000 -1,560 Descending FlightAware ADS-B
06:52PM 51.6611 0.3502 263° West 368 423 9,600 -1,560 Descending FlightAware ADS-B
06:52PM 51.6580 0.3084 263° West 361 415 9,200 -1,380 Descending FlightAware ADS-B
06:53PM 51.6550 0.2676 263° West 358 412 8,900 -1,440 Descending FlightAware ADS-B
06:53PM 51.6519 0.2270 263° West 357 411 8,500 -1,560 Descending FlightAware ADS-B
06:53PM 51.6487 0.1871 263° West 355 409 8,100 -1,020 Descending FlightAware ADS-B
06:53PM 51.6458 0.1482 263° West 351 404 8,000 -240 Descending FlightAware ADS-B
06:54PM 51.6424 0.1070 262° West 350 403 8,000  Level FlightAware ADS-B
06:54PM 51.6388 0.0647 262° West 350 403 8,000  Level FlightAware ADS-B
06:54PM 51.6355 0.0261 262° West 349 402 8,000  Level FlightAware ADS-B
06:54PM 51.6322 -0.0131 262° West 350 403 8,000  Level FlightAware ADS-B
06:55PM 51.6289 -0.0522 262° West 349 402 8,000  Level FlightAware ADS-B
06:55PM 51.6257 -0.0912 262° West 350 403 8,000 -240 Level FlightAware ADS-B
06:55PM 51.6223 -0.1308 262° West 348 400 7,900 -1,200 Descending FlightAware ADS-B
06:55PM 51.6190 -0.1690 262° West 345 397 7,400 -1,620 Descending FlightAware ADS-B
06:56PM 51.6155 -0.2077 262° West 337 388 7,100 -780 Descending FlightAware ADS-B
06:56PM 51.6120 -0.2451 261° West 319 367 7,000 -240 Descending FlightAware ADS-B
06:56PM 51.6086 -0.2795 261° West 301 346 7,000  Level FlightAware ADS-B
06:56PM 51.6054 -0.3124 261° West 288 331 7,000  Level FlightAware ADS-B
06:57PM 51.6023 -0.3442 261° West 284 327 7,000  Level FlightAware ADS-B
06:57PM 51.5992 -0.3758 261° West 283 326 7,000  Level FlightAware ADS-B
06:57PM 51.5961 -0.4075 261° West 284 327 7,000  Level FlightAware ADS-B
06:57PM 51.5932 -0.4374 261° West 284 327 7,000  Level FlightAware ADS-B
06:58PM 51.5902 -0.4688 261° West 284 327 7,000  Level FlightAware ADS-B
06:58PM 51.5871 -0.5000 261° West 283 326 7,000  Level FlightAware ADS-B
06:58PM 51.5840 -0.5316 261° West 270 311 7,000  Level FlightAware ADS-B
06:58PM 51.5809 -0.5611 260° West 254 292 7,000 -240 Level FlightAware ADS-B
06:59PM 51.5780 -0.5887 260° West 246 283 6,900 -720 Descending FlightAware ADS-B
06:59PM 51.5760 -0.6077 260° West 245 282 6,700 -900 Descending FlightAware ADS-B
06:59PM 51.5750 -0.6148 257° West 245 282 6,700 -780 Level FlightAware ADS-B
06:59PM 51.5740 -0.6204 254° West 244 281 6,600 -1,500 Descending FlightAware ADS-B
06:59PM 51.5724 -0.6287 253° West 244 281 6,500 -1,140 Descending FlightAware ADS-B
06:59PM 51.5680 -0.6480 250° West 242 278 6,300 -900 Descending FlightAware ADS-B
06:59PM 51.5619 -0.6733 249° West 240 276 6,100 -1,020 Descending FlightAware ADS-B
07:00PM 51.5561 -0.6981 249° West 237 273 5,800 -1,020 Descending FlightAware ADS-B
07:00PM 51.5526 -0.7135 250° West 235 270 5,700 -780 Descending FlightAware ADS-B
07:00PM 51.5474 -0.7367 250° West 232 267 5,500 -840 Descending FlightAware ADS-B
07:00PM 51.5421 -0.7610 251° West 225 259 5,300 -600 Descending FlightAware ADS-B
07:01PM 51.5369 -0.7848 251° West 217 250 5,200 -480 Descending FlightAware ADS-B
07:01PM 51.5332 -0.8015 250° West 211 243 5,100 -480 Descending FlightAware ADS-B
07:01PM 51.5322 -0.8059 250° West 210 242 5,100 -1,020 Level FlightAware ADS-B
07:01PM 51.5310 -0.8101 245° Southwest 209 241 5,000 -900 Descending FlightAware ADS-B
07:01PM 51.5295 -0.8144 241° Southwest 209 241 5,000 -900 Level FlightAware ADS-B
07:01PM 51.5276 -0.8183 232° Southwest 210 242 4,900 -1,020 Descending FlightAware ADS-B
07:01PM 51.5256 -0.8216 225° Southwest 210 242 4,900 -1,020 Level FlightAware ADS-B
07:01PM 51.5228 -0.8250 217° Southwest 209 241 4,800 -900 Descending FlightAware ADS-B
07:01PM 51.5197 -0.8278 209° Southwest 210 242 4,800 -900 Level FlightAware ADS-B
07:01PM 51.5167 -0.8297 202° Southwest 210 242 4,700 -1,740 Descending FlightAware ADS-B
07:01PM 51.5133 -0.8309 193° South 209 241 4,600 -900 Descending FlightAware ADS-B
07:01PM 51.5100 -0.8315 187° South 209 241 4,600 -720 Level FlightAware ADS-B
07:01PM 51.5045 -0.8318 182° South 208 239 4,500 -1,140 Descending FlightAware ADS-B
07:02PM 51.5004 -0.8315 177° South 208 239 4,400 -780 Descending FlightAware ADS-B
07:02PM 51.4970 -0.8305 170° South 208 239 4,400 -900 Level FlightAware ADS-B
07:02PM 51.4930 -0.8283 161° South 207 238 4,300 -1,500 Descending FlightAware ADS-B
07:02PM 51.4901 -0.8259 153° Southeast 206 237 4,200 -780 Descending FlightAware ADS-B
07:02PM 51.4869 -0.8221 144° Southeast 206 237 4,200 -780 Level FlightAware ADS-B
07:02PM 51.4845 -0.8183 135° Southeast 205 236 4,100 -1,500 Descending FlightAware ADS-B
07:02PM 51.4821 -0.8136 129° Southeast 204 235 4,000 -720 Descending FlightAware ADS-B
07:02PM 51.4791 -0.8065 124° Southeast 205 236 4,000 -720 Level FlightAware ADS-B
07:02PM 51.4778 -0.8015 112° Southeast 204 235 3,900 -1,500 Descending FlightAware ADS-B
07:02PM 51.4770 -0.7962 104° East 204 235 3,800 -1,740 Descending FlightAware ADS-B
07:02PM 51.4766 -0.7911 97° East 205 236 3,700 -2,040 Descending FlightAware ADS-B
07:02PM 51.4764 -0.7862 94° East 205 236 3,600 -1,380 Descending FlightAware ADS-B
07:03PM 51.4763 -0.7631 90° East 207 238 3,300 -1,200 Descending FlightAware ADS-B
07:03PM 51.4763 -0.7460 90° East 204 235 3,100 -1,140 Descending FlightAware ADS-B
07:03PM 51.4764 -0.7231 90° East 199 229 2,800 -1,200 Descending FlightAware ADS-B
07:03PM 51.4766 -0.7007 89° East 194 223 2,500 -1,020 Descending FlightAware ADS-B
07:03PM 51.4767 -0.6803 90° East 176 203 2,300 -1,020 Descending FlightAware ADS-B
07:04PM 51.4768 -0.6610 90° East 168 193 2,000 -1,200 Descending FlightAware ADS-B
07:04PM 51.4769 -0.6483 89° East 168 193 1,800 -840 Descending FlightAware ADS-B
07:04PM 51.4769 -0.6335 90° East 165 190 1,700 -720 Descending FlightAware ADS-B
07:04PM 51.4770 -0.6146 90° East 166 191 1,500 -780 Descending FlightAware ADS-B
07:05PM 51.4771 -0.5954 90° East 164 189 1,300 -780 Descending FlightAware ADS-B
07:05PM 51.4772 -0.5766 90° East 154 177 1,100 -840 Descending FlightAware ADS-B
07:06PM 51.4773 -0.5315 90° East 132 152 500 -720 Descending FlightAware UK
07:06PM 51.4773 -0.5322 90° East 128 147 600 -720 Climbing FlightAware ADS-B
07:06PM 51.4776 -0.4977 90° East 130 150 100 -780 Descending FlightAware UK
07:06PM 51.4770 -0.4950 90° East 127 146 100  Level FlightAware
07:07PM 51.4780 -0.4770 85° East 125 144 -300 Descending FlightAware
07:07PM 51.4780 -0.4550 90° East 125 144  Level FlightAware